sensor_id;sensor_type;location;lat;lon;timestamp;P1;durP1;ratioP1;P2;durP2;ratioP2
63112;SDS011;49206;48.020;21.378;2022-11-20T00:00:57;21.70;;;10.88;;
63112;SDS011;49206;48.020;21.378;2022-11-20T00:01:59;24.75;;;13.18;;
63112;SDS011;49206;48.020;21.378;2022-11-20T00:03:01;24.20;;;11.48;;
63112;SDS011;49206;48.020;21.378;2022-11-20T00:04:04;28.08;;;12.40;;
63112;SDS011;49206;48.020;21.378;2022-11-20T00:05:06;27.55;;;13.00;;
63112;SDS011;49206;48.020;21.378;2022-11-20T00:06:10;24.50;;;13.18;;
63112;SDS011;49206;48.020;21.378;2022-11-20T00:07:13;24.63;;;11.80;;
63112;SDS011;49206;48.020;21.378;2022-11-20T00:08:16;23.08;;;13.55;;
63112;SDS011;49206;48.020;21.378;2022-11-20T00:09:18;24.48;;;11.80;;
63112;SDS011;49206;48.020;21.378;2022-11-20T00:10:21;26.33;;;12.98;;
63112;SDS011;49206;48.020;21.378;2022-11-20T00:11:24;27.38;;;13.07;;
63112;SDS011;49206;48.020;21.378;2022-11-20T00:12:27;26.35;;;11.70;;
63112;SDS011;49206;48.020;21.378;2022-11-20T00:13:29;24.05;;;12.25;;
63112;SDS011;49206;48.020;21.378;2022-11-20T00:14:32;24.27;;;11.25;;
63112;SDS011;49206;48.020;21.378;2022-11-20T00:15:34;25.15;;;11.93;;
63112;SDS011;49206;48.020;21.378;2022-11-20T00:16:37;31.45;;;13.98;;
63112;SDS011;49206;48.020;21.378;2022-11-20T00:17:39;25.80;;;11.50;;
63112;SDS011;49206;48.020;21.378;2022-11-20T00:18:41;25.33;;;11.55;;
63112;SDS011;49206;48.020;21.378;2022-11-20T00:19:47;24.13;;;12.27;;
63112;SDS011;49206;48.020;21.378;2022-11-20T00:20:49;24.95;;;12.50;;
63112;SDS011;49206;48.020;21.378;2022-11-20T00:21:51;21.83;;;11.57;;
63112;SDS011;49206;48.020;21.378;2022-11-20T00:22:55;23.40;;;11.77;;
63112;SDS011;49206;48.020;21.378;2022-11-20T00:23:58;24.48;;;12.05;;
63112;SDS011;49206;48.020;21.378;2022-11-20T00:25:01;25.27;;;12.20;;
63112;SDS011;49206;48.020;21.378;2022-11-20T00:26:04;23.83;;;11.60;;
63112;SDS011;49206;48.020;21.378;2022-11-20T00:27:07;24.63;;;11.60;;
63112;SDS011;49206;48.020;21.378;2022-11-20T00:28:10;26.92;;;11.77;;
63112;SDS011;49206;48.020;21.378;2022-11-20T00:29:12;24.05;;;12.75;;
63112;SDS011;49206;48.020;21.378;2022-11-20T00:30:15;25.27;;;11.73;;
63112;SDS011;49206;48.020;21.378;2022-11-20T00:31:17;24.88;;;10.85;;
63112;SDS011;49206;48.020;21.378;2022-11-20T00:32:20;21.88;;;11.95;;
63112;SDS011;49206;48.020;21.378;2022-11-20T00:33:23;21.83;;;10.98;;
63112;SDS011;49206;48.020;21.378;2022-11-20T00:34:25;24.10;;;11.50;;
63112;SDS011;49206;48.020;21.378;2022-11-20T00:35:31;24.60;;;12.65;;
63112;SDS011;49206;48.020;21.378;2022-11-20T00:36:33;24.95;;;11.98;;
63112;SDS011;49206;48.020;21.378;2022-11-20T00:37:36;23.70;;;11.98;;
63112;SDS011;49206;48.020;21.378;2022-11-20T00:38:38;26.02;;;13.07;;
63112;SDS011;49206;48.020;21.378;2022-11-20T00:39:41;22.77;;;11.45;;
63112;SDS011;49206;48.020;21.378;2022-11-20T00:40:43;23.25;;;11.48;;
63112;SDS011;49206;48.020;21.378;2022-11-20T00:41:45;26.38;;;13.02;;
63112;SDS011;49206;48.020;21.378;2022-11-20T00:42:48;24.35;;;11.07;;
63112;SDS011;49206;48.020;21.378;2022-11-20T00:43:51;22.45;;;11.35;;
63112;SDS011;49206;48.020;21.378;2022-11-20T00:44:54;24.73;;;11.48;;
63112;SDS011;49206;48.020;21.378;2022-11-20T00:45:57;24.20;;;11.32;;
63112;SDS011;49206;48.020;21.378;2022-11-20T00:47:04;24.95;;;12.50;;
63112;SDS011;49206;48.020;21.378;2022-11-20T00:48:06;24.33;;;11.93;;
63112;SDS011;49206;48.020;21.378;2022-11-20T00:49:09;27.08;;;12.30;;
63112;SDS011;49206;48.020;21.378;2022-11-20T00:50:11;24.95;;;12.55;;
63112;SDS011;49206;48.020;21.378;2022-11-20T00:51:14;25.75;;;12.10;;
63112;SDS011;49206;48.020;21.378;2022-11-20T00:52:17;28.88;;;12.05;;
63112;SDS011;49206;48.020;21.378;2022-11-20T00:53:20;29.08;;;12.65;;
63112;SDS011;49206;48.020;21.378;2022-11-20T00:54:23;23.90;;;10.70;;
63112;SDS011;49206;48.020;21.378;2022-11-20T00:55:26;25.30;;;11.20;;
63112;SDS011;49206;48.020;21.378;2022-11-20T00:56:28;26.20;;;11.85;;
63112;SDS011;49206;48.020;21.378;2022-11-20T00:57:31;22.63;;;10.65;;
63112;SDS011;49206;48.020;21.378;2022-11-20T00:58:34;22.95;;;11.65;;
63112;SDS011;49206;48.020;21.378;2022-11-20T00:59:38;28.25;;;13.00;;
63112;SDS011;49206;48.020;21.378;2022-11-20T01:00:40;24.90;;;11.90;;
63112;SDS011;49206;48.020;21.378;2022-11-20T01:01:43;23.60;;;10.50;;
63112;SDS011;49206;48.020;21.378;2022-11-20T01:02:45;26.00;;;11.93;;
63112;SDS011;49206;48.020;21.378;2022-11-20T01:03:48;22.95;;;11.60;;
63112;SDS011;49206;48.020;21.378;2022-11-20T01:05:03;20.98;;;10.82;;
63112;SDS011;49206;48.020;21.378;2022-11-20T01:06:27;25.02;;;11.52;;
63112;SDS011;49206;48.020;21.378;2022-11-20T01:07:36;21.40;;;10.98;;
63112;SDS011;49206;48.020;21.378;2022-11-20T01:08:38;25.27;;;11.98;;
63112;SDS011;49206;48.020;21.378;2022-11-20T01:09:41;26.27;;;11.45;;
63112;SDS011;49206;48.020;21.378;2022-11-20T01:10:43;22.20;;;10.63;;
63112;SDS011;49206;48.020;21.378;2022-11-20T01:11:46;27.65;;;12.57;;
63112;SDS011;49206;48.020;21.378;2022-11-20T01:12:48;20.23;;;10.82;;
63112;SDS011;49206;48.020;21.378;2022-11-20T01:14:11;23.13;;;10.32;;
63112;SDS011;49206;48.020;21.378;2022-11-20T01:15:16;23.45;;;10.93;;
63112;SDS011;49206;48.020;21.378;2022-11-20T01:16:19;21.85;;;10.73;;
63112;SDS011;49206;48.020;21.378;2022-11-20T01:17:33;20.42;;;9.63;;
63112;SDS011;49206;48.020;21.378;2022-11-20T01:18:36;23.95;;;12.18;;
63112;SDS011;49206;48.020;21.378;2022-11-20T01:19:40;23.98;;;11.25;;
63112;SDS011;49206;48.020;21.378;2022-11-20T01:20:42;22.05;;;10.63;;
63112;SDS011;49206;48.020;21.378;2022-11-20T01:21:45;24.13;;;11.10;;
63112;SDS011;49206;48.020;21.378;2022-11-20T01:22:50;20.98;;;11.00;;
63112;SDS011;49206;48.020;21.378;2022-11-20T01:23:52;22.52;;;10.85;;
63112;SDS011;49206;48.020;21.378;2022-11-20T01:24:55;22.52;;;10.60;;
63112;SDS011;49206;48.020;21.378;2022-11-20T01:25:59;23.52;;;11.70;;
63112;SDS011;49206;48.020;21.378;2022-11-20T01:27:03;25.67;;;11.73;;
63112;SDS011;49206;48.020;21.378;2022-11-20T01:28:06;23.02;;;10.90;;
63112;SDS011;49206;48.020;21.378;2022-11-20T01:29:15;24.30;;;11.90;;
63112;SDS011;49206;48.020;21.378;2022-11-20T01:30:19;21.35;;;10.65;;
63112;SDS011;49206;48.020;21.378;2022-11-20T01:31:23;22.60;;;10.55;;
63112;SDS011;49206;48.020;21.378;2022-11-20T01:32:27;25.67;;;11.68;;
63112;SDS011;49206;48.020;21.378;2022-11-20T01:33:30;25.77;;;11.77;;
63112;SDS011;49206;48.020;21.378;2022-11-20T01:34:32;24.67;;;11.55;;
63112;SDS011;49206;48.020;21.378;2022-11-20T01:35:34;26.20;;;12.05;;
63112;SDS011;49206;48.020;21.378;2022-11-20T01:36:37;25.27;;;12.20;;
63112;SDS011;49206;48.020;21.378;2022-11-20T01:37:40;26.52;;;11.77;;
63112;SDS011;49206;48.020;21.378;2022-11-20T01:38:43;25.27;;;12.00;;
63112;SDS011;49206;48.020;21.378;2022-11-20T01:39:46;25.27;;;12.75;;
63112;SDS011;49206;48.020;21.378;2022-11-20T01:40:55;26.45;;;12.23;;
63112;SDS011;49206;48.020;21.378;2022-11-20T01:41:57;25.25;;;11.45;;
63112;SDS011;49206;48.020;21.378;2022-11-20T01:43:18;26.13;;;12.63;;
63112;SDS011;49206;48.020;21.378;2022-11-20T01:44:45;20.50;;;10.88;;
63112;SDS011;49206;48.020;21.378;2022-11-20T01:48:41;24.92;;;10.98;;
63112;SDS011;49206;48.020;21.378;2022-11-20T01:49:56;28.85;;;11.40;;
63112;SDS011;49206;48.020;21.378;2022-11-20T01:51:05;25.33;;;11.90;;
63112;SDS011;49206;48.020;21.378;2022-11-20T01:52:18;26.30;;;11.95;;
63112;SDS011;49206;48.020;21.378;2022-11-20T01:53:24;22.35;;;11.43;;
63112;SDS011;49206;48.020;21.378;2022-11-20T01:54:40;22.50;;;11.15;;
63112;SDS011;49206;48.020;21.378;2022-11-20T01:55:50;25.10;;;11.73;;
63112;SDS011;49206;48.020;21.378;2022-11-20T01:56:55;23.90;;;12.55;;
63112;SDS011;49206;48.020;21.378;2022-11-20T01:57:59;26.70;;;12.73;;
63112;SDS011;49206;48.020;21.378;2022-11-20T01:59:04;25.35;;;11.65;;
63112;SDS011;49206;48.020;21.378;2022-11-20T02:00:11;25.92;;;11.30;;
63112;SDS011;49206;48.020;21.378;2022-11-20T02:01:17;25.52;;;12.30;;
63112;SDS011;49206;48.020;21.378;2022-11-20T02:02:20;26.33;;;11.98;;
63112;SDS011;49206;48.020;21.378;2022-11-20T02:03:23;22.98;;;11.00;;
63112;SDS011;49206;48.020;21.378;2022-11-20T02:04:26;24.17;;;11.43;;
63112;SDS011;49206;48.020;21.378;2022-11-20T02:05:33;24.23;;;11.65;;
63112;SDS011;49206;48.020;21.378;2022-11-20T02:06:44;22.45;;;10.60;;
63112;SDS011;49206;48.020;21.378;2022-11-20T02:07:50;27.58;;;11.90;;
63112;SDS011;49206;48.020;21.378;2022-11-20T02:08:52;29.98;;;13.65;;
63112;SDS011;49206;48.020;21.378;2022-11-20T02:09:56;28.15;;;11.68;;
63112;SDS011;49206;48.020;21.378;2022-11-20T02:10:59;25.52;;;12.15;;
63112;SDS011;49206;48.020;21.378;2022-11-20T02:12:03;22.63;;;11.35;;
63112;SDS011;49206;48.020;21.378;2022-11-20T02:13:06;26.50;;;13.57;;
63112;SDS011;49206;48.020;21.378;2022-11-20T02:14:28;24.23;;;11.13;;
63112;SDS011;49206;48.020;21.378;2022-11-20T02:15:31;29.42;;;12.27;;
63112;SDS011;49206;48.020;21.378;2022-11-20T02:16:36;29.77;;;12.70;;
63112;SDS011;49206;48.020;21.378;2022-11-20T02:17:41;25.65;;;12.25;;
63112;SDS011;49206;48.020;21.378;2022-11-20T02:18:44;26.15;;;11.77;;
63112;SDS011;49206;48.020;21.378;2022-11-20T02:19:47;25.92;;;12.52;;
63112;SDS011;49206;48.020;21.378;2022-11-20T02:20:50;24.50;;;11.23;;
63112;SDS011;49206;48.020;21.378;2022-11-20T02:25:03;24.40;;;11.77;;
63112;SDS011;49206;48.020;21.378;2022-11-20T02:27:13;22.45;;;11.35;;
63112;SDS011;49206;48.020;21.378;2022-11-20T02:28:17;26.98;;;12.00;;
63112;SDS011;49206;48.020;21.378;2022-11-20T02:29:23;25.70;;;13.00;;
63112;SDS011;49206;48.020;21.378;2022-11-20T02:30:28;27.05;;;12.32;;
63112;SDS011;49206;48.020;21.378;2022-11-20T02:31:37;25.30;;;12.27;;
63112;SDS011;49206;48.020;21.378;2022-11-20T02:32:42;26.60;;;12.77;;
63112;SDS011;49206;48.020;21.378;2022-11-20T02:33:44;29.80;;;13.57;;
63112;SDS011;49206;48.020;21.378;2022-11-20T02:34:46;28.42;;;13.45;;
63112;SDS011;49206;48.020;21.378;2022-11-20T02:35:51;29.02;;;13.45;;
63112;SDS011;49206;48.020;21.378;2022-11-20T02:36:54;30.15;;;13.25;;
63112;SDS011;49206;48.020;21.378;2022-11-20T02:38:01;28.48;;;14.15;;
63112;SDS011;49206;48.020;21.378;2022-11-20T02:39:05;29.52;;;13.00;;
63112;SDS011;49206;48.020;21.378;2022-11-20T02:40:07;27.55;;;12.65;;
63112;SDS011;49206;48.020;21.378;2022-11-20T02:41:10;23.13;;;12.35;;
63112;SDS011;49206;48.020;21.378;2022-11-20T02:42:13;27.95;;;13.10;;
63112;SDS011;49206;48.020;21.378;2022-11-20T02:43:15;23.98;;;12.60;;
63112;SDS011;49206;48.020;21.378;2022-11-20T02:44:18;26.17;;;11.73;;
63112;SDS011;49206;48.020;21.378;2022-11-20T02:45:20;27.95;;;13.02;;
63112;SDS011;49206;48.020;21.378;2022-11-20T02:46:24;27.88;;;12.65;;
63112;SDS011;49206;48.020;21.378;2022-11-20T02:47:27;28.05;;;12.20;;
63112;SDS011;49206;48.020;21.378;2022-11-20T02:48:29;29.40;;;12.68;;
63112;SDS011;49206;48.020;21.378;2022-11-20T02:49:35;24.92;;;12.43;;
63112;SDS011;49206;48.020;21.378;2022-11-20T02:50:38;28.65;;;13.30;;
63112;SDS011;49206;48.020;21.378;2022-11-20T02:51:41;27.85;;;12.73;;
63112;SDS011;49206;48.020;21.378;2022-11-20T02:52:44;24.83;;;12.48;;
63112;SDS011;49206;48.020;21.378;2022-11-20T02:53:46;31.00;;;13.77;;
63112;SDS011;49206;48.020;21.378;2022-11-20T02:54:48;26.30;;;12.73;;
63112;SDS011;49206;48.020;21.378;2022-11-20T02:55:51;29.27;;;13.30;;
63112;SDS011;49206;48.020;21.378;2022-11-20T02:56:53;24.88;;;11.18;;
63112;SDS011;49206;48.020;21.378;2022-11-20T02:57:56;26.92;;;12.05;;
63112;SDS011;49206;48.020;21.378;2022-11-20T02:58:58;26.10;;;12.70;;
63112;SDS011;49206;48.020;21.378;2022-11-20T03:00:01;24.45;;;11.52;;
63112;SDS011;49206;48.020;21.378;2022-11-20T03:01:03;29.30;;;13.50;;
63112;SDS011;49206;48.020;21.378;2022-11-20T03:02:06;28.42;;;11.57;;
63112;SDS011;49206;48.020;21.378;2022-11-20T03:03:08;24.55;;;12.93;;
63112;SDS011;49206;48.020;21.378;2022-11-20T03:04:12;29.27;;;11.90;;
63112;SDS011;49206;48.020;21.378;2022-11-20T03:05:14;25.40;;;12.35;;
63112;SDS011;49206;48.020;21.378;2022-11-20T03:06:16;25.48;;;11.95;;
63112;SDS011;49206;48.020;21.378;2022-11-20T03:07:18;22.85;;;10.73;;
63112;SDS011;49206;48.020;21.378;2022-11-20T03:08:21;27.50;;;13.45;;
63112;SDS011;49206;48.020;21.378;2022-11-20T03:09:23;24.05;;;12.00;;
63112;SDS011;49206;48.020;21.378;2022-11-20T03:10:26;26.80;;;12.35;;
63112;SDS011;49206;48.020;21.378;2022-11-20T03:11:28;25.35;;;11.55;;
63112;SDS011;49206;48.020;21.378;2022-11-20T03:12:30;26.02;;;11.93;;
63112;SDS011;49206;48.020;21.378;2022-11-20T03:13:33;29.13;;;13.57;;
63112;SDS011;49206;48.020;21.378;2022-11-20T03:14:38;26.48;;;11.98;;
63112;SDS011;49206;48.020;21.378;2022-11-20T03:15:40;23.10;;;12.35;;
63112;SDS011;49206;48.020;21.378;2022-11-20T03:16:43;25.65;;;12.20;;
63112;SDS011;49206;48.020;21.378;2022-11-20T03:17:45;25.35;;;12.60;;
63112;SDS011;49206;48.020;21.378;2022-11-20T03:18:48;24.25;;;12.25;;
63112;SDS011;49206;48.020;21.378;2022-11-20T03:19:51;27.33;;;13.35;;
63112;SDS011;49206;48.020;21.378;2022-11-20T03:20:56;24.80;;;12.52;;
63112;SDS011;49206;48.020;21.378;2022-11-20T03:22:00;24.45;;;12.55;;
63112;SDS011;49206;48.020;21.378;2022-11-20T03:23:03;27.35;;;13.43;;
63112;SDS011;49206;48.020;21.378;2022-11-20T03:24:06;28.48;;;15.98;;
63112;SDS011;49206;48.020;21.378;2022-11-20T03:25:08;25.88;;;13.68;;
63112;SDS011;49206;48.020;21.378;2022-11-20T03:26:15;25.50;;;13.40;;
63112;SDS011;49206;48.020;21.378;2022-11-20T03:27:21;27.02;;;14.43;;
63112;SDS011;49206;48.020;21.378;2022-11-20T03:28:23;24.60;;;13.07;;
63112;SDS011;49206;48.020;21.378;2022-11-20T03:29:25;26.17;;;12.70;;
63112;SDS011;49206;48.020;21.378;2022-11-20T03:30:28;24.60;;;12.73;;
63112;SDS011;49206;48.020;21.378;2022-11-20T03:31:35;25.77;;;13.05;;
63112;SDS011;49206;48.020;21.378;2022-11-20T03:32:42;24.95;;;12.07;;
63112;SDS011;49206;48.020;21.378;2022-11-20T03:33:44;26.23;;;11.60;;
63112;SDS011;49206;48.020;21.378;2022-11-20T03:34:47;25.67;;;11.50;;
63112;SDS011;49206;48.020;21.378;2022-11-20T03:35:49;27.05;;;13.55;;
63112;SDS011;49206;48.020;21.378;2022-11-20T03:36:52;27.85;;;15.43;;
63112;SDS011;49206;48.020;21.378;2022-11-20T03:37:54;23.60;;;12.15;;
63112;SDS011;49206;48.020;21.378;2022-11-20T03:38:57;30.77;;;15.13;;
63112;SDS011;49206;48.020;21.378;2022-11-20T03:39:59;26.73;;;13.82;;
63112;SDS011;49206;48.020;21.378;2022-11-20T03:41:09;23.95;;;12.20;;
63112;SDS011;49206;48.020;21.378;2022-11-20T03:42:12;25.40;;;11.63;;
63112;SDS011;49206;48.020;21.378;2022-11-20T03:43:33;21.77;;;11.35;;
63112;SDS011;49206;48.020;21.378;2022-11-20T03:45:40;22.55;;;10.50;;
63112;SDS011;49206;48.020;21.378;2022-11-20T03:46:42;23.40;;;11.25;;
63112;SDS011;49206;48.020;21.378;2022-11-20T03:47:45;23.88;;;10.82;;
63112;SDS011;49206;48.020;21.378;2022-11-20T03:48:48;23.83;;;10.38;;
63112;SDS011;49206;48.020;21.378;2022-11-20T03:49:52;24.73;;;11.43;;
63112;SDS011;49206;48.020;21.378;2022-11-20T03:51:08;24.73;;;12.02;;
63112;SDS011;49206;48.020;21.378;2022-11-20T03:52:16;21.88;;;11.48;;
63112;SDS011;49206;48.020;21.378;2022-11-20T03:53:18;23.08;;;10.88;;
63112;SDS011;49206;48.020;21.378;2022-11-20T03:54:21;23.75;;;11.75;;
63112;SDS011;49206;48.020;21.378;2022-11-20T03:55:23;21.35;;;11.30;;
63112;SDS011;49206;48.020;21.378;2022-11-20T03:56:27;20.73;;;10.43;;
63112;SDS011;49206;48.020;21.378;2022-11-20T03:57:33;23.33;;;12.05;;
63112;SDS011;49206;48.020;21.378;2022-11-20T03:58:35;26.95;;;11.88;;
63112;SDS011;49206;48.020;21.378;2022-11-20T03:59:39;20.88;;;10.27;;
63112;SDS011;49206;48.020;21.378;2022-11-20T04:00:41;21.27;;;10.82;;
63112;SDS011;49206;48.020;21.378;2022-11-20T04:01:44;23.95;;;11.80;;
63112;SDS011;49206;48.020;21.378;2022-11-20T04:02:50;24.05;;;11.35;;
63112;SDS011;49206;48.020;21.378;2022-11-20T04:03:53;24.67;;;11.68;;
63112;SDS011;49206;48.020;21.378;2022-11-20T04:06:03;18.42;;;9.43;;
63112;SDS011;49206;48.020;21.378;2022-11-20T04:07:12;21.17;;;10.23;;
63112;SDS011;49206;48.020;21.378;2022-11-20T04:08:14;21.10;;;10.43;;
63112;SDS011;49206;48.020;21.378;2022-11-20T04:09:16;20.85;;;10.63;;
63112;SDS011;49206;48.020;21.378;2022-11-20T04:10:19;26.25;;;10.68;;
63112;SDS011;49206;48.020;21.378;2022-11-20T04:11:23;23.15;;;11.70;;
63112;SDS011;49206;48.020;21.378;2022-11-20T04:12:31;24.30;;;11.38;;
63112;SDS011;49206;48.020;21.378;2022-11-20T04:13:36;19.98;;;10.27;;
63112;SDS011;49206;48.020;21.378;2022-11-20T04:14:38;28.95;;;11.05;;
63112;SDS011;49206;48.020;21.378;2022-11-20T04:15:40;21.98;;;11.02;;
63112;SDS011;49206;48.020;21.378;2022-11-20T04:16:43;23.23;;;10.95;;
63112;SDS011;49206;48.020;21.378;2022-11-20T04:17:45;21.55;;;10.95;;
63112;SDS011;49206;48.020;21.378;2022-11-20T04:18:51;23.27;;;12.35;;
63112;SDS011;49206;48.020;21.378;2022-11-20T04:19:57;22.70;;;12.70;;
63112;SDS011;49206;48.020;21.378;2022-11-20T04:20:59;22.48;;;11.45;;
63112;SDS011;49206;48.020;21.378;2022-11-20T04:22:02;22.10;;;10.65;;
63112;SDS011;49206;48.020;21.378;2022-11-20T04:23:04;25.17;;;11.95;;
63112;SDS011;49206;48.020;21.378;2022-11-20T04:24:10;25.45;;;11.68;;
63112;SDS011;49206;48.020;21.378;2022-11-20T04:25:13;23.58;;;11.43;;
63112;SDS011;49206;48.020;21.378;2022-11-20T04:26:15;23.77;;;11.93;;
63112;SDS011;49206;48.020;21.378;2022-11-20T04:27:18;25.60;;;12.13;;
63112;SDS011;49206;48.020;21.378;2022-11-20T04:28:22;27.13;;;13.23;;
63112;SDS011;49206;48.020;21.378;2022-11-20T04:29:24;26.77;;;12.57;;
63112;SDS011;49206;48.020;21.378;2022-11-20T04:30:26;24.20;;;11.68;;
63112;SDS011;49206;48.020;21.378;2022-11-20T04:31:30;26.70;;;12.85;;
63112;SDS011;49206;48.020;21.378;2022-11-20T04:32:34;24.73;;;12.20;;
63112;SDS011;49206;48.020;21.378;2022-11-20T04:33:36;27.70;;;12.38;;
63112;SDS011;49206;48.020;21.378;2022-11-20T04:34:39;23.73;;;11.55;;
63112;SDS011;49206;48.020;21.378;2022-11-20T04:35:42;28.92;;;11.98;;
63112;SDS011;49206;48.020;21.378;2022-11-20T04:36:45;23.00;;;11.57;;
63112;SDS011;49206;48.020;21.378;2022-11-20T04:37:47;20.48;;;10.70;;
63112;SDS011;49206;48.020;21.378;2022-11-20T04:38:56;26.60;;;12.57;;
63112;SDS011;49206;48.020;21.378;2022-11-20T04:40:00;23.25;;;10.75;;
63112;SDS011;49206;48.020;21.378;2022-11-20T04:41:03;25.30;;;12.20;;
63112;SDS011;49206;48.020;21.378;2022-11-20T04:42:08;23.17;;;11.68;;
63112;SDS011;49206;48.020;21.378;2022-11-20T04:43:30;23.77;;;11.10;;
63112;SDS011;49206;48.020;21.378;2022-11-20T04:44:32;23.67;;;11.77;;
63112;SDS011;49206;48.020;21.378;2022-11-20T04:45:35;23.05;;;11.32;;
63112;SDS011;49206;48.020;21.378;2022-11-20T04:46:41;24.33;;;11.88;;
63112;SDS011;49206;48.020;21.378;2022-11-20T04:47:44;25.08;;;12.50;;
63112;SDS011;49206;48.020;21.378;2022-11-20T04:48:47;29.75;;;12.63;;
63112;SDS011;49206;48.020;21.378;2022-11-20T04:49:50;26.23;;;12.90;;
63112;SDS011;49206;48.020;21.378;2022-11-20T04:50:52;28.67;;;12.68;;
63112;SDS011;49206;48.020;21.378;2022-11-20T04:51:55;26.42;;;12.63;;
63112;SDS011;49206;48.020;21.378;2022-11-20T04:52:57;26.35;;;12.63;;
63112;SDS011;49206;48.020;21.378;2022-11-20T04:53:59;26.70;;;12.73;;
63112;SDS011;49206;48.020;21.378;2022-11-20T04:55:02;25.25;;;12.27;;
63112;SDS011;49206;48.020;21.378;2022-11-20T04:56:05;26.60;;;13.15;;
63112;SDS011;49206;48.020;21.378;2022-11-20T04:57:12;25.50;;;12.27;;
63112;SDS011;49206;48.020;21.378;2022-11-20T04:58:15;27.30;;;12.77;;
63112;SDS011;49206;48.020;21.378;2022-11-20T04:59:18;27.58;;;11.88;;
63112;SDS011;49206;48.020;21.378;2022-11-20T05:00:21;25.45;;;13.35;;
63112;SDS011;49206;48.020;21.378;2022-11-20T05:01:24;26.63;;;13.27;;
63112;SDS011;49206;48.020;21.378;2022-11-20T05:02:26;27.00;;;12.75;;
63112;SDS011;49206;48.020;21.378;2022-11-20T05:03:36;27.70;;;13.45;;
63112;SDS011;49206;48.020;21.378;2022-11-20T05:04:43;28.27;;;13.38;;
63112;SDS011;49206;48.020;21.378;2022-11-20T05:05:45;27.40;;;12.73;;
63112;SDS011;49206;48.020;21.378;2022-11-20T05:06:47;29.60;;;13.90;;
63112;SDS011;49206;48.020;21.378;2022-11-20T05:07:51;27.27;;;13.52;;
63112;SDS011;49206;48.020;21.378;2022-11-20T05:08:54;24.55;;;12.98;;
63112;SDS011;49206;48.020;21.378;2022-11-20T05:09:56;24.80;;;12.25;;
63112;SDS011;49206;48.020;21.378;2022-11-20T05:11:02;26.73;;;13.30;;
63112;SDS011;49206;48.020;21.378;2022-11-20T05:12:07;27.60;;;13.25;;
63112;SDS011;49206;48.020;21.378;2022-11-20T05:13:10;28.75;;;13.75;;
63112;SDS011;49206;48.020;21.378;2022-11-20T05:14:12;28.13;;;13.82;;
63112;SDS011;49206;48.020;21.378;2022-11-20T05:15:15;28.77;;;14.40;;
63112;SDS011;49206;48.020;21.378;2022-11-20T05:16:19;30.30;;;13.40;;
63112;SDS011;49206;48.020;21.378;2022-11-20T05:17:24;28.08;;;13.38;;
63112;SDS011;49206;48.020;21.378;2022-11-20T05:18:26;27.25;;;13.55;;
63112;SDS011;49206;48.020;21.378;2022-11-20T05:19:29;28.10;;;13.38;;
63112;SDS011;49206;48.020;21.378;2022-11-20T05:20:34;29.35;;;12.75;;
63112;SDS011;49206;48.020;21.378;2022-11-20T05:21:38;23.58;;;12.55;;
63112;SDS011;49206;48.020;21.378;2022-11-20T05:22:40;34.13;;;13.82;;
63112;SDS011;49206;48.020;21.378;2022-11-20T05:23:43;30.10;;;14.13;;
63112;SDS011;49206;48.020;21.378;2022-11-20T05:24:46;28.92;;;14.60;;
63112;SDS011;49206;48.020;21.378;2022-11-20T05:25:51;29.63;;;13.35;;
63112;SDS011;49206;48.020;21.378;2022-11-20T05:26:59;27.60;;;13.18;;
63112;SDS011;49206;48.020;21.378;2022-11-20T05:28:02;25.67;;;13.63;;
63112;SDS011;49206;48.020;21.378;2022-11-20T05:29:04;28.20;;;13.27;;
63112;SDS011;49206;48.020;21.378;2022-11-20T05:30:07;27.10;;;13.38;;
63112;SDS011;49206;48.020;21.378;2022-11-20T05:31:11;29.55;;;13.88;;
63112;SDS011;49206;48.020;21.378;2022-11-20T05:32:15;26.13;;;12.95;;
63112;SDS011;49206;48.020;21.378;2022-11-20T05:33:17;28.42;;;13.77;;
63112;SDS011;49206;48.020;21.378;2022-11-20T05:34:20;30.55;;;13.48;;
63112;SDS011;49206;48.020;21.378;2022-11-20T05:35:22;28.52;;;14.10;;
63112;SDS011;49206;48.020;21.378;2022-11-20T05:36:25;29.73;;;14.35;;
63112;SDS011;49206;48.020;21.378;2022-11-20T05:37:27;31.58;;;14.88;;
63112;SDS011;49206;48.020;21.378;2022-11-20T05:38:30;31.73;;;16.35;;
63112;SDS011;49206;48.020;21.378;2022-11-20T05:39:32;31.55;;;15.55;;
63112;SDS011;49206;48.020;21.378;2022-11-20T05:40:35;28.60;;;14.32;;
63112;SDS011;49206;48.020;21.378;2022-11-20T05:41:37;29.52;;;14.85;;
63112;SDS011;49206;48.020;21.378;2022-11-20T05:42:40;27.83;;;15.05;;
63112;SDS011;49206;48.020;21.378;2022-11-20T05:43:43;27.73;;;13.38;;
63112;SDS011;49206;48.020;21.378;2022-11-20T05:44:46;30.90;;;14.07;;
63112;SDS011;49206;48.020;21.378;2022-11-20T05:45:54;28.33;;;12.55;;
63112;SDS011;49206;48.020;21.378;2022-11-20T05:46:57;31.58;;;12.93;;
63112;SDS011;49206;48.020;21.378;2022-11-20T05:47:59;26.45;;;13.48;;
63112;SDS011;49206;48.020;21.378;2022-11-20T05:49:02;28.27;;;14.52;;
63112;SDS011;49206;48.020;21.378;2022-11-20T05:50:05;28.75;;;13.90;;
63112;SDS011;49206;48.020;21.378;2022-11-20T05:51:08;28.73;;;14.13;;
63112;SDS011;49206;48.020;21.378;2022-11-20T05:52:13;30.00;;;13.65;;
63112;SDS011;49206;48.020;21.378;2022-11-20T05:53:15;27.70;;;13.35;;
63112;SDS011;49206;48.020;21.378;2022-11-20T05:54:17;29.38;;;12.98;;
63112;SDS011;49206;48.020;21.378;2022-11-20T05:55:23;29.05;;;13.65;;
63112;SDS011;49206;48.020;21.378;2022-11-20T05:56:25;30.30;;;13.77;;
63112;SDS011;49206;48.020;21.378;2022-11-20T05:57:27;28.65;;;14.13;;
63112;SDS011;49206;48.020;21.378;2022-11-20T05:58:30;29.20;;;14.48;;
63112;SDS011;49206;48.020;21.378;2022-11-20T05:59:33;26.17;;;14.07;;
63112;SDS011;49206;48.020;21.378;2022-11-20T06:00:37;32.33;;;15.02;;
63112;SDS011;49206;48.020;21.378;2022-11-20T06:01:39;32.40;;;14.98;;
63112;SDS011;49206;48.020;21.378;2022-11-20T06:02:42;31.75;;;14.95;;
63112;SDS011;49206;48.020;21.378;2022-11-20T06:03:44;27.58;;;14.27;;
63112;SDS011;49206;48.020;21.378;2022-11-20T06:04:51;31.55;;;14.60;;
63112;SDS011;49206;48.020;21.378;2022-11-20T06:05:53;29.45;;;14.02;;
63112;SDS011;49206;48.020;21.378;2022-11-20T06:06:56;26.80;;;13.85;;
63112;SDS011;49206;48.020;21.378;2022-11-20T06:08:00;30.10;;;14.27;;
63112;SDS011;49206;48.020;21.378;2022-11-20T06:09:02;31.30;;;14.25;;
63112;SDS011;49206;48.020;21.378;2022-11-20T06:10:06;31.67;;;13.85;;
63112;SDS011;49206;48.020;21.378;2022-11-20T06:11:09;29.00;;;13.52;;
63112;SDS011;49206;48.020;21.378;2022-11-20T06:12:14;31.33;;;13.68;;
63112;SDS011;49206;48.020;21.378;2022-11-20T06:13:16;28.80;;;14.02;;
63112;SDS011;49206;48.020;21.378;2022-11-20T06:14:18;28.95;;;14.57;;
63112;SDS011;49206;48.020;21.378;2022-11-20T06:15:21;27.85;;;14.52;;
63112;SDS011;49206;48.020;21.378;2022-11-20T06:16:23;30.48;;;15.00;;
63112;SDS011;49206;48.020;21.378;2022-11-20T06:17:26;32.17;;;14.23;;
63112;SDS011;49206;48.020;21.378;2022-11-20T06:18:30;30.83;;;14.82;;